createdAt,value
2023-03-16T00:01:58.828Z,5.50
2023-03-16T00:04:00.534Z,5.50
2023-03-16T00:06:17.384Z,5.50
2023-03-16T00:08:19.872Z,5.50
2023-03-16T00:10:27.262Z,5.40
2023-03-16T00:12:29.448Z,5.40
2023-03-16T00:14:35.619Z,5.40
2023-03-16T00:16:37.468Z,5.40
2023-03-16T00:18:41.647Z,5.40
2023-03-16T00:20:44.280Z,5.40
2023-03-16T00:22:46.356Z,5.40
2023-03-16T00:24:48.342Z,5.40
2023-03-16T00:26:50.004Z,5.30
2023-03-16T00:28:54.296Z,5.40
2023-03-16T00:30:58.967Z,5.30
2023-03-16T00:33:05.062Z,5.30
2023-03-16T00:35:09.844Z,5.30
2023-03-16T00:37:15.622Z,5.40
2023-03-16T00:39:20.479Z,5.30
2023-03-16T00:41:24.551Z,5.30
2023-03-16T00:43:28.397Z,5.30
2023-03-16T00:45:30.238Z,5.30
2023-03-16T00:47:35.148Z,5.30
2023-03-16T00:49:39.288Z,5.30
2023-03-16T00:51:45.841Z,5.20
2023-03-16T00:53:47.602Z,5.30
2023-03-16T00:55:51.575Z,5.20
2023-03-16T00:57:55.932Z,5.20
2023-03-16T00:59:57.684Z,5.20
2023-03-16T01:01:59.398Z,5.20
2023-03-16T01:04:01.792Z,5.20
2023-03-16T01:06:10.092Z,5.20
2023-03-16T01:08:11.862Z,5.20
2023-03-16T01:10:16.516Z,5.20
2023-03-16T01:12:19.641Z,5.20
2023-03-16T01:14:25.077Z,5.20
2023-03-16T01:16:27.010Z,5.20
2023-03-16T01:18:29.804Z,5.20
2023-03-16T01:20:33.444Z,5.20
2023-03-16T01:22:35.127Z,5.20
2023-03-16T01:24:38.255Z,5.20
2023-03-16T01:26:41.184Z,5.20
2023-03-16T01:28:44.276Z,5.30
2023-03-16T01:30:46.156Z,5.30
2023-03-16T01:32:49.158Z,5.30
2023-03-16T01:34:51.383Z,5.10
2023-03-16T01:36:54.026Z,5.30
2023-03-16T01:39:06.772Z,5.30
2023-03-16T01:41:17.675Z,5.30
2023-03-16T01:43:23.109Z,5.30
2023-03-16T01:46:02.876Z,5.30
2023-03-16T01:48:05.640Z,5.40
2023-03-16T01:50:07.639Z,5.40
2023-03-16T01:52:19.186Z,5.40
2023-03-16T01:54:33.792Z,5.40
2023-03-16T01:56:44.685Z,5.40
2023-03-16T01:58:47.323Z,5.40
2023-03-16T02:00:49.060Z,5.40
2023-03-16T02:03:05.225Z,5.40
2023-03-16T02:05:31.263Z,5.40
2023-03-16T02:07:39.077Z,5.40
2023-03-16T02:09:49.105Z,5.40
2023-03-16T02:11:54.922Z,5.40
2023-03-16T02:14:05.154Z,5.40
2023-03-16T02:16:08.613Z,5.40
2023-03-16T02:18:12.635Z,5.40
2023-03-16T02:20:39.066Z,5.40
2023-03-16T02:22:47.517Z,5.40
2023-03-16T02:24:51.336Z,5.40
2023-03-16T02:27:04.582Z,5.50
2023-03-16T02:29:29.665Z,5.50
2023-03-16T02:31:32.234Z,5.50
2023-03-16T02:33:35.628Z,5.50
2023-03-16T02:35:38.177Z,5.50
2023-03-16T02:37:41.786Z,5.50
2023-03-16T02:39:44.108Z,5.50
2023-03-16T02:41:48.451Z,5.60
2023-03-16T02:44:00.134Z,5.60
2023-03-16T02:46:09.235Z,5.60
2023-03-16T02:48:20.049Z,5.60
2023-03-16T02:50:24.532Z,5.70
2023-03-16T02:52:26.270Z,5.70
2023-03-16T02:54:32.897Z,5.70
2023-03-16T02:56:34.915Z,5.70
2023-03-16T02:58:36.754Z,5.80
2023-03-16T03:00:43.079Z,5.80
2023-03-16T03:02:45.952Z,5.80
2023-03-16T03:04:48.083Z,5.80
2023-03-16T03:06:51.272Z,5.80
2023-03-16T03:08:54.283Z,5.80
2023-03-16T03:10:57.307Z,5.90
2023-03-16T03:13:01.726Z,5.90
2023-03-16T03:15:04.578Z,5.90
2023-03-16T03:17:14.437Z,5.90
2023-03-16T03:19:16.150Z,5.90
2023-03-16T03:21:18.431Z,5.90
2023-03-16T03:23:20.547Z,6.00
2023-03-16T03:25:23.044Z,6.00
2023-03-16T03:27:26.584Z,6.00
2023-03-16T03:29:34.505Z,6.00
2023-03-16T03:31:39.270Z,6.00
2023-03-16T03:33:41.864Z,6.00
2023-03-16T03:35:43.739Z,6.00
2023-03-16T03:37:45.669Z,6.00
2023-03-16T03:39:48.479Z,6.10
2023-03-16T03:41:55.960Z,6.10
2023-03-16T03:44:01.026Z,6.10
2023-03-16T03:46:04.051Z,6.10
2023-03-16T03:48:08.574Z,6.10
2023-03-16T03:50:11.945Z,6.10
2023-03-16T03:52:26.633Z,6.10
2023-03-16T03:54:28.330Z,6.20
2023-03-16T03:56:36.642Z,6.20
2023-03-16T03:58:44.569Z,6.20
2023-03-16T04:00:49.849Z,6.20
2023-03-16T04:02:51.785Z,6.20
2023-03-16T04:05:01.517Z,6.20
2023-03-16T04:07:07.649Z,6.30
2023-03-16T04:09:09.892Z,6.20
2023-03-16T04:11:14.393Z,6.20
2023-03-16T04:13:17.256Z,6.20
2023-03-16T04:15:19.409Z,6.20
2023-03-16T04:17:34.386Z,6.20
2023-03-16T04:19:39.197Z,6.20
2023-03-16T04:21:48.087Z,6.20
2023-03-16T04:23:54.168Z,6.20
2023-03-16T04:26:01.184Z,6.20
2023-03-16T04:28:03.198Z,6.20
2023-03-16T04:30:11.353Z,6.20
2023-03-16T04:32:15.795Z,6.20
2023-03-16T04:34:18.120Z,6.30
2023-03-16T04:36:20.242Z,6.20
2023-03-16T04:38:22.670Z,6.30
2023-03-16T04:40:30.869Z,6.30
2023-03-16T04:42:41.390Z,6.30
2023-03-16T04:44:48.049Z,6.30
2023-03-16T04:46:50.004Z,6.30
2023-03-16T04:48:53.700Z,6.30
2023-03-16T04:50:55.515Z,6.30
2023-03-16T04:52:58.022Z,6.30
2023-03-16T04:55:00.539Z,6.30
2023-03-16T04:57:03.717Z,6.30
2023-03-16T04:59:16.440Z,6.30
2023-03-16T05:01:28.127Z,6.30
2023-03-16T05:03:34.713Z,6.30
2023-03-16T05:05:39.200Z,6.30
2023-03-16T05:07:42.680Z,6.30
2023-03-16T05:09:44.673Z,6.30
2023-03-16T05:11:46.446Z,6.30
2023-03-16T05:13:50.545Z,6.30
2023-03-16T05:15:55.220Z,6.30
2023-03-16T05:18:02.736Z,6.30
2023-03-16T05:20:08.192Z,6.30
2023-03-16T05:22:15.614Z,6.30
2023-03-16T05:24:32.858Z,6.30
2023-03-16T05:26:34.653Z,6.30
2023-03-16T05:28:37.313Z,6.30
2023-03-16T05:30:42.372Z,6.30
2023-03-16T05:32:54.801Z,6.30
2023-03-16T05:34:56.902Z,6.40
2023-03-16T05:37:01.669Z,6.40
2023-03-16T05:39:06.491Z,6.40
2023-03-16T05:41:12.443Z,6.40
2023-03-16T05:43:37.221Z,6.40
2023-03-16T05:45:39.082Z,6.40
2023-03-16T05:47:49.949Z,6.40
2023-03-16T05:49:52.652Z,6.40
2023-03-16T05:52:06.539Z,6.40
2023-03-16T05:54:10.308Z,6.40
2023-03-16T05:56:18.996Z,6.50
2023-03-16T05:58:21.316Z,6.50
2023-03-16T06:00:25.787Z,6.50
2023-03-16T06:02:40.292Z,6.50
2023-03-16T06:04:42.198Z,6.50
2023-03-16T06:06:43.938Z,6.50
2023-03-16T06:08:52.602Z,6.50
2023-03-16T06:10:56.047Z,6.60
2023-03-16T06:12:59.840Z,6.50
2023-03-16T06:15:02.482Z,6.50
2023-03-16T06:17:05.481Z,6.60
2023-03-16T06:19:08.008Z,6.60
2023-03-16T06:21:10.680Z,6.60
2023-03-16T06:23:13.995Z,6.60
2023-03-16T06:25:16.532Z,6.60
2023-03-16T06:27:20.627Z,6.70
2023-03-16T06:29:40.692Z,6.70
2023-03-16T06:31:42.495Z,6.70
2023-03-16T06:33:46.843Z,6.70
2023-03-16T06:35:50.892Z,6.70
2023-03-16T06:38:01.909Z,6.80
2023-03-16T06:40:30.330Z,6.80
2023-03-16T06:42:32.302Z,6.90
2023-03-16T06:44:34.414Z,6.90
2023-03-16T06:46:43.061Z,6.90
2023-03-16T06:48:47.233Z,7.00
2023-03-16T06:50:49.405Z,7.00
2023-03-16T06:52:56.948Z,7.00
2023-03-16T06:54:58.655Z,7.10
2023-03-16T06:57:01.556Z,7.10
2023-03-16T06:59:03.294Z,7.10
2023-03-16T07:01:05.610Z,7.20
2023-03-16T07:03:07.426Z,7.20
2023-03-16T07:05:14.367Z,7.20
2023-03-16T07:07:17.161Z,7.20
2023-03-16T07:09:18.857Z,7.20
2023-03-16T07:11:23.481Z,7.30
2023-03-16T07:13:25.910Z,7.30
2023-03-16T07:15:27.637Z,7.30
2023-03-16T07:17:32.331Z,7.40
2023-03-16T07:19:34.405Z,7.40
2023-03-16T07:21:40.708Z,7.50
2023-03-16T07:23:46.932Z,7.50
2023-03-16T07:25:53.202Z,7.50
2023-03-16T07:27:55.155Z,7.60
2023-03-16T07:30:05.060Z,7.60
2023-03-16T07:32:10.029Z,7.60
2023-03-16T07:34:13.243Z,7.70
2023-03-16T07:36:22.427Z,7.70
2023-03-16T07:38:30.132Z,7.70
2023-03-16T07:40:34.341Z,7.70
2023-03-16T07:42:42.383Z,7.80
2023-03-16T07:44:45.463Z,7.80
2023-03-16T07:46:48.875Z,7.90
2023-03-16T07:48:51.229Z,7.90
2023-03-16T07:50:54.142Z,8.00
2023-03-16T07:52:59.373Z,8.00
2023-03-16T07:55:01.855Z,8.10
2023-03-16T07:57:06.556Z,8.10
2023-03-16T07:59:13.552Z,8.20
2023-03-16T08:01:16.287Z,8.20
2023-03-16T08:03:18.075Z,8.20
2023-03-16T08:05:21.237Z,8.20
2023-03-16T08:07:27.364Z,8.30
2023-03-16T08:09:36.841Z,8.30
2023-03-16T08:11:41.497Z,8.40
2023-03-16T08:13:44.587Z,8.40
2023-03-16T08:15:49.160Z,8.40
2023-03-16T08:17:59.137Z,8.40
2023-03-16T08:20:01.141Z,8.50
2023-03-16T08:22:03.611Z,8.50
2023-03-16T08:24:13.544Z,8.50
2023-03-16T08:26:17.378Z,8.50
2023-03-16T08:28:21.571Z,8.60
2023-03-16T08:30:25.364Z,8.60
2023-03-16T08:32:43.419Z,8.70
2023-03-16T08:34:48.170Z,8.70
2023-03-16T08:36:49.962Z,8.80
2023-03-16T08:39:06.207Z,8.80
2023-03-16T08:41:12.528Z,8.90
2023-03-16T08:43:17.311Z,8.90
2023-03-16T08:45:19.980Z,9.00
2023-03-16T08:47:27.072Z,9.10
2023-03-16T08:49:29.868Z,9.10
2023-03-16T08:51:39.914Z,9.20
2023-03-16T08:53:41.655Z,9.30
2023-03-16T08:55:43.872Z,9.30
2023-03-16T08:57:48.651Z,9.40
2023-03-16T08:59:51.149Z,9.50
2023-03-16T09:01:53.108Z,9.60
2023-03-16T09:03:54.972Z,9.60
2023-03-16T09:06:05.402Z,9.80
2023-03-16T09:08:07.068Z,9.80
2023-03-16T09:10:13.253Z,9.90
2023-03-16T09:12:15.047Z,10.00
2023-03-16T09:14:16.752Z,10.10
2023-03-16T09:16:20.223Z,10.20
2023-03-16T09:18:23.353Z,10.20
2023-03-16T09:20:35.150Z,10.30
2023-03-16T09:22:43.750Z,10.40
2023-03-16T09:24:45.570Z,10.50
2023-03-16T09:26:47.457Z,10.60
2023-03-16T09:28:49.557Z,10.60
2023-03-16T09:30:51.203Z,10.70
2023-03-16T09:32:52.937Z,10.70
2023-03-16T09:34:57.902Z,10.80
2023-03-16T09:37:01.842Z,10.80
2023-03-16T09:39:04.034Z,10.90
2023-03-16T09:41:30.290Z,10.90
2023-03-16T09:44:10.680Z,11.00
2023-03-16T09:46:28.400Z,11.10
2023-03-16T09:48:32.840Z,11.20
2023-03-16T09:50:48.440Z,11.20
2023-03-16T09:52:55.668Z,11.20
2023-03-16T09:55:01.120Z,11.30
2023-03-16T09:57:18.115Z,11.30
2023-03-16T09:59:20.509Z,11.40
2023-03-16T10:01:43.103Z,11.40
2023-03-16T10:04:11.456Z,11.50
2023-03-16T10:06:14.270Z,11.60
2023-03-16T10:08:31.640Z,11.60
2023-03-16T10:10:46.792Z,11.70
2023-03-16T10:12:55.023Z,11.70
2023-03-16T10:15:17.751Z,11.80
2023-03-16T10:17:36.523Z,11.80
2023-03-16T10:19:47.865Z,11.90
2023-03-16T10:21:52.808Z,12.00
2023-03-16T10:24:07.657Z,12.10
2023-03-16T10:26:25.787Z,12.20
2023-03-16T10:28:31.915Z,12.30
2023-03-16T10:30:36.107Z,12.40
2023-03-16T10:32:38.327Z,12.50
2023-03-16T10:34:40.847Z,12.60
2023-03-16T10:36:45.370Z,12.70
2023-03-16T10:39:08.736Z,12.80
2023-03-16T10:41:23.131Z,13.00
2023-03-16T10:43:25.517Z,13.10
2023-03-16T10:45:33.459Z,13.20
2023-03-16T10:47:35.424Z,13.30
2023-03-16T10:49:42.182Z,13.30
2023-03-16T10:51:44.048Z,13.40
2023-03-16T10:53:46.099Z,13.50
2023-03-16T10:55:48.452Z,13.40
2023-03-16T10:57:55.610Z,13.60
2023-03-16T11:00:11.513Z,13.80
2023-03-16T11:02:20.485Z,13.80
2023-03-16T11:04:24.622Z,13.90
2023-03-16T11:06:30.648Z,13.90
2023-03-16T11:08:38.900Z,13.90
2023-03-16T11:10:55.968Z,14.00
2023-03-16T11:13:19.675Z,14.00
2023-03-16T11:15:26.093Z,14.10
2023-03-16T11:17:45.519Z,14.10
2023-03-16T11:19:57.644Z,14.20
2023-03-16T11:22:14.268Z,14.20
2023-03-16T11:24:23.593Z,14.30
2023-03-16T11:26:35.649Z,14.20
2023-03-16T11:28:41.877Z,14.30
2023-03-16T11:30:59.158Z,14.30
2023-03-16T11:33:09.636Z,14.30
2023-03-16T11:35:41.998Z,14.30
2023-03-16T11:38:04.530Z,14.30
2023-03-16T11:40:33.971Z,14.30
2023-03-16T11:42:42.540Z,14.30
2023-03-16T11:45:18.930Z,14.30
2023-03-16T11:47:42.516Z,14.30
2023-03-16T11:50:03.384Z,14.30
2023-03-16T11:52:32.905Z,14.30
2023-03-16T11:54:48.547Z,14.30
2023-03-16T11:57:16.088Z,14.30
2023-03-16T11:59:40.846Z,14.30
2023-03-16T12:02:01.537Z,14.40
2023-03-16T12:04:20.650Z,14.50
2023-03-16T12:06:40.506Z,14.70
2023-03-16T12:08:57.432Z,14.90
2023-03-16T12:11:22.938Z,15.00
2023-03-16T12:13:38.493Z,15.20
2023-03-16T12:15:56.811Z,15.30
2023-03-16T12:18:12.581Z,15.40
2023-03-16T12:20:29.213Z,15.40
2023-03-16T12:22:44.407Z,15.50
2023-03-16T12:24:53.192Z,15.60
2023-03-16T12:27:03.023Z,15.60
2023-03-16T12:29:59.821Z,15.70
2023-03-16T12:32:22.829Z,15.80
2023-03-16T12:34:58.518Z,15.90
2023-03-16T12:37:09.628Z,15.90
2023-03-16T12:39:45.722Z,15.90
2023-03-16T12:41:50.578Z,16.00
2023-03-16T12:44:24.035Z,16.00
2023-03-16T12:46:48.056Z,16.00
2023-03-16T12:48:55.528Z,16.10
2023-03-16T12:51:00.331Z,16.20
2023-03-16T12:53:06.929Z,16.30
2023-03-16T12:55:15.318Z,16.20
2023-03-16T12:57:18.507Z,16.30
2023-03-16T12:59:22.694Z,16.30
2023-03-16T13:01:43.893Z,16.30
2023-03-16T13:03:49.532Z,16.30
2023-03-16T13:05:55.609Z,16.30
2023-03-16T13:08:16.055Z,16.30
2023-03-16T13:10:20.765Z,16.30
2023-03-16T13:12:36.829Z,16.30
2023-03-16T13:14:42.642Z,16.30
2023-03-16T13:16:46.688Z,16.30
2023-03-16T13:18:52.105Z,16.30
2023-03-16T13:20:58.375Z,16.30
2023-03-16T13:23:18.390Z,16.20
2023-03-16T13:25:30.800Z,16.20
2023-03-16T13:27:36.512Z,16.20
2023-03-16T13:29:39.083Z,16.10
2023-03-16T13:31:42.041Z,16.10
2023-03-16T13:33:44.188Z,16.10
2023-03-16T13:35:47.599Z,16.10
2023-03-16T13:37:49.770Z,16.10
2023-03-16T13:39:55.023Z,16.10
2023-03-16T13:42:07.586Z,16.20
2023-03-16T13:44:14.781Z,16.30
2023-03-16T13:46:20.426Z,16.30
2023-03-16T13:48:22.521Z,16.30
2023-03-16T13:50:24.329Z,16.40
2023-03-16T13:52:29.970Z,16.40
2023-03-16T13:54:31.771Z,16.50
2023-03-16T13:56:33.931Z,16.50
2023-03-16T13:58:39.976Z,16.60
2023-03-16T14:00:45.787Z,16.70
2023-03-16T14:02:54.339Z,16.70
2023-03-16T14:04:56.143Z,16.80
2023-03-16T14:07:02.391Z,16.80
2023-03-16T14:09:17.279Z,16.80
2023-03-16T14:11:19.244Z,16.90
2023-03-16T14:13:32.261Z,16.90
2023-03-16T14:15:37.166Z,17.00
2023-03-16T14:17:49.541Z,17.00
2023-03-16T14:20:04.273Z,17.00
2023-03-16T14:22:06.528Z,17.00
2023-03-16T14:24:36.918Z,17.10
2023-03-16T14:26:47.363Z,17.10
2023-03-16T14:29:05.151Z,17.20
2023-03-16T14:31:14.401Z,17.20
2023-03-16T14:33:28.646Z,17.10
2023-03-16T14:35:41.449Z,17.10
2023-03-16T14:37:44.785Z,17.10
2023-03-16T14:39:58.003Z,17.10
2023-03-16T14:42:04.684Z,17.00
2023-03-16T14:44:18.717Z,17.00
2023-03-16T14:46:27.726Z,17.00
2023-03-16T14:48:30.261Z,17.00
2023-03-16T14:50:34.564Z,17.00
2023-03-16T14:52:37.093Z,16.90
2023-03-16T14:54:38.752Z,16.90
2023-03-16T14:56:42.374Z,16.90
2023-03-16T14:58:44.108Z,16.80
2023-03-16T15:00:53.151Z,16.80
2023-03-16T15:03:03.083Z,16.80
2023-03-16T15:05:08.444Z,16.80
2023-03-16T15:07:26.690Z,16.80
2023-03-16T15:09:43.020Z,16.80
2023-03-16T15:11:44.780Z,16.80
2023-03-16T15:13:47.160Z,16.80
2023-03-16T15:15:49.521Z,16.80
2023-03-16T15:17:52.399Z,16.70
2023-03-16T15:19:55.771Z,16.70
2023-03-16T15:22:00.131Z,16.40
2023-03-16T15:24:02.515Z,16.70
2023-03-16T15:26:09.404Z,16.60
2023-03-16T15:28:21.570Z,16.60
2023-03-16T15:30:28.591Z,16.60
2023-03-16T15:32:34.037Z,16.50
2023-03-16T15:34:35.830Z,16.50
2023-03-16T15:36:37.866Z,16.40
2023-03-16T15:38:43.267Z,16.30
2023-03-16T15:40:48.911Z,16.30
2023-03-16T15:42:50.982Z,16.30
2023-03-16T15:44:53.725Z,16.30
2023-03-16T15:46:55.958Z,16.20
2023-03-16T15:48:57.708Z,16.20
2023-03-16T15:51:23.964Z,16.20
2023-03-16T15:53:31.345Z,16.10
2023-03-16T15:55:40.681Z,16.10
2023-03-16T15:57:42.526Z,16.10
2023-03-16T15:59:45.866Z,16.10
2023-03-16T16:01:48.540Z,16.10
2023-03-16T16:03:53.062Z,16.20
2023-03-16T16:05:56.187Z,16.10
2023-03-16T16:07:59.255Z,16.20
2023-03-16T16:10:02.295Z,16.20
2023-03-16T16:12:04.130Z,16.20
2023-03-16T16:14:13.644Z,16.20
2023-03-16T16:16:17.949Z,16.20
2023-03-16T16:18:33.876Z,16.10
2023-03-16T16:20:35.791Z,16.10
2023-03-16T16:22:38.880Z,16.00
2023-03-16T16:24:40.598Z,16.00
2023-03-16T16:26:52.150Z,15.90
2023-03-16T16:28:58.474Z,15.90
2023-03-16T16:31:04.358Z,15.80
2023-03-16T16:33:27.611Z,15.80
2023-03-16T16:35:32.912Z,15.70
2023-03-16T16:37:34.992Z,15.60
2023-03-16T16:39:36.791Z,15.60
2023-03-16T16:41:39.160Z,15.50
2023-03-16T16:43:43.759Z,15.50
2023-03-16T16:45:45.497Z,15.40
2023-03-16T16:47:51.987Z,15.40
2023-03-16T16:49:53.676Z,15.30
2023-03-16T16:51:55.942Z,15.30
2023-03-16T16:53:59.448Z,15.20
2023-03-16T16:56:02.043Z,15.20
2023-03-16T16:58:07.744Z,15.20
2023-03-16T17:00:23.046Z,15.10
2023-03-16T17:02:33.033Z,15.10
2023-03-16T17:04:34.765Z,15.00
2023-03-16T17:06:36.754Z,15.00
2023-03-16T17:08:41.439Z,15.00
2023-03-16T17:10:43.910Z,14.90
2023-03-16T17:12:45.991Z,14.90
2023-03-16T17:14:48.480Z,14.80
2023-03-16T17:16:51.638Z,14.80
2023-03-16T17:18:55.123Z,14.80
2023-03-16T17:20:56.992Z,14.70
2023-03-16T17:22:58.755Z,14.70
2023-03-16T17:25:01.619Z,14.60
2023-03-16T17:27:04.490Z,14.60
2023-03-16T17:29:17.406Z,14.50
2023-03-16T17:31:25.183Z,14.50
2023-03-16T17:33:28.265Z,14.50
2023-03-16T17:35:30.429Z,14.40
2023-03-16T17:37:32.518Z,14.40
2023-03-16T17:39:34.784Z,14.40
2023-03-16T17:41:40.588Z,14.30
2023-03-16T17:43:42.261Z,14.30
2023-03-16T17:45:46.616Z,14.20
2023-03-16T17:47:50.270Z,14.20
2023-03-16T17:49:54.973Z,14.10
2023-03-16T17:51:59.629Z,14.10
2023-03-16T17:54:01.526Z,14.10
2023-03-16T17:56:03.535Z,14.00
2023-03-16T17:58:05.805Z,14.00
2023-03-16T18:00:36.573Z,13.90
2023-03-16T18:02:57.157Z,13.90
2023-03-16T18:05:01.023Z,13.90
2023-03-16T18:07:02.962Z,13.80
2023-03-16T18:09:04.599Z,13.80
2023-03-16T18:11:16.591Z,13.70
2023-03-16T18:13:20.661Z,13.70
2023-03-16T18:15:24.205Z,13.70
2023-03-16T18:17:29.903Z,13.60
2023-03-16T18:19:32.215Z,13.60
2023-03-16T18:21:36.501Z,13.60
2023-03-16T18:23:38.206Z,13.60
2023-03-16T18:25:40.251Z,13.50
2023-03-16T18:27:42.192Z,13.50
2023-03-16T18:29:46.928Z,13.40
2023-03-16T18:31:56.147Z,13.40
2023-03-16T18:34:00.795Z,13.40
2023-03-16T18:36:07.747Z,13.40
2023-03-16T18:38:23.119Z,13.40
2023-03-16T18:40:25.898Z,13.30
2023-03-16T18:42:29.699Z,13.30
2023-03-16T18:44:31.715Z,13.20
2023-03-16T18:46:36.961Z,13.20
2023-03-16T18:48:38.653Z,13.20
2023-03-16T18:50:43.573Z,13.20
2023-03-16T18:52:48.601Z,13.20
2023-03-16T18:54:54.205Z,13.10
2023-03-16T18:56:58.657Z,13.10
2023-03-16T18:59:00.383Z,13.10
2023-03-16T19:01:02.590Z,13.10
2023-03-16T19:03:05.618Z,13.00
2023-03-16T19:05:16.833Z,13.00
2023-03-16T19:07:36.070Z,13.00
2023-03-16T19:09:38.999Z,13.00
2023-03-16T19:11:44.888Z,12.90
2023-03-16T19:13:47.420Z,12.90
2023-03-16T19:15:53.847Z,12.90
2023-03-16T19:17:58.281Z,12.80
2023-03-16T19:20:00.027Z,12.80
2023-03-16T19:22:09.704Z,12.80
2023-03-16T19:24:25.874Z,12.80
2023-03-16T19:26:27.988Z,12.80
2023-03-16T19:28:34.132Z,12.90
2023-03-16T19:30:41.630Z,12.70
2023-03-16T19:32:43.441Z,12.70
2023-03-16T19:34:47.584Z,12.70
2023-03-16T19:36:49.574Z,12.70
2023-03-16T19:38:51.644Z,12.60
2023-03-16T19:41:00.847Z,12.60
2023-03-16T19:43:02.608Z,12.60
2023-03-16T19:45:07.379Z,12.60
2023-03-16T19:47:30.890Z,12.60
2023-03-16T19:49:33.062Z,12.60
2023-03-16T19:51:34.793Z,12.60
2023-03-16T19:53:36.460Z,12.60
2023-03-16T19:55:38.229Z,12.50
2023-03-16T19:57:40.059Z,12.50
2023-03-16T19:59:43.547Z,12.50
2023-03-16T20:01:46.744Z,12.50
2023-03-16T20:03:49.671Z,12.40
2023-03-16T20:05:52.284Z,12.40
2023-03-16T20:07:57.200Z,12.40
2023-03-16T20:09:58.874Z,12.40
2023-03-16T20:12:00.716Z,12.40
2023-03-16T20:14:05.812Z,12.40
2023-03-16T20:16:15.321Z,12.40
2023-03-16T20:18:18.901Z,12.30
2023-03-16T20:20:26.491Z,12.30
2023-03-16T20:22:31.107Z,12.30
2023-03-16T20:24:36.082Z,12.30
2023-03-16T20:26:37.836Z,12.30
2023-03-16T20:28:39.713Z,12.30
2023-03-16T20:30:47.063Z,12.30
2023-03-16T20:32:49.184Z,12.30
2023-03-16T20:34:51.573Z,12.30
2023-03-16T20:36:54.026Z,12.30
2023-03-16T20:38:55.927Z,12.30
2023-03-16T20:40:57.761Z,12.30
2023-03-16T20:42:59.803Z,12.30
2023-03-16T20:45:18.788Z,12.30
2023-03-16T20:47:23.006Z,12.30
2023-03-16T20:49:25.315Z,12.30
2023-03-16T20:51:28.611Z,12.30
2023-03-16T20:53:30.318Z,12.30
2023-03-16T20:55:37.285Z,12.30
2023-03-16T20:57:40.106Z,12.30
2023-03-16T20:59:43.372Z,12.30
2023-03-16T21:01:49.133Z,12.30
2023-03-16T21:03:55.942Z,12.30
2023-03-16T21:05:59.791Z,12.30
2023-03-16T21:08:01.806Z,12.20
2023-03-16T21:10:03.577Z,12.30
2023-03-16T21:12:07.263Z,12.20
2023-03-16T21:14:16.868Z,12.20
2023-03-16T21:16:19.908Z,12.20
2023-03-16T21:18:22.232Z,12.20
2023-03-16T21:20:26.107Z,12.20
2023-03-16T21:22:31.846Z,12.20
2023-03-16T21:24:37.132Z,12.20
2023-03-16T21:26:40.960Z,12.20
2023-03-16T21:28:47.224Z,12.20
2023-03-16T21:31:00.116Z,12.20
2023-03-16T21:33:02.249Z,12.20
2023-03-16T21:35:07.545Z,12.20
2023-03-16T21:37:15.393Z,12.20
2023-03-16T21:39:22.535Z,12.20
2023-03-16T21:41:24.492Z,12.20
2023-03-16T21:43:27.357Z,12.10
2023-03-16T21:45:31.757Z,12.20
2023-03-16T21:47:39.781Z,12.10
2023-03-16T21:49:51.398Z,12.10
2023-03-16T21:51:55.574Z,12.10
2023-03-16T21:53:58.023Z,12.10
2023-03-16T21:56:00.290Z,12.10
2023-03-16T21:58:06.040Z,12.10
2023-03-16T22:00:10.255Z,12.10
2023-03-16T22:02:24.283Z,12.10
2023-03-16T22:04:28.913Z,12.10
2023-03-16T22:06:31.276Z,12.10
2023-03-16T22:08:34.325Z,12.10
2023-03-16T22:10:36.374Z,12.10
2023-03-16T22:12:38.748Z,12.10
2023-03-16T22:14:40.630Z,12.00
2023-03-16T22:16:42.440Z,12.00
2023-03-16T22:18:46.992Z,12.00
2023-03-16T22:20:48.890Z,12.00
2023-03-16T22:22:54.976Z,12.00
2023-03-16T22:24:57.082Z,12.10
2023-03-16T22:26:59.314Z,12.00
2023-03-16T22:29:01.713Z,12.10
2023-03-16T22:31:04.678Z,12.10
2023-03-16T22:33:06.386Z,12.10
2023-03-16T22:35:25.082Z,12.10
2023-03-16T22:37:28.883Z,12.10
2023-03-16T22:39:37.882Z,12.10
2023-03-16T22:41:39.566Z,12.10
2023-03-16T22:43:44.760Z,12.10
2023-03-16T22:45:51.434Z,12.10
2023-03-16T22:47:56.063Z,12.10
2023-03-16T22:49:58.390Z,12.10
2023-03-16T22:52:00.332Z,12.00
2023-03-16T22:54:07.256Z,12.00
2023-03-16T22:56:11.669Z,12.00
2023-03-16T22:58:31.851Z,12.00
2023-03-16T23:00:36.947Z,12.00
2023-03-16T23:02:40.932Z,12.00
2023-03-16T23:04:42.780Z,11.90
2023-03-16T23:06:46.102Z,11.90
2023-03-16T23:08:48.220Z,11.80
2023-03-16T23:10:51.915Z,11.80
2023-03-16T23:12:54.266Z,11.80
2023-03-16T23:14:56.164Z,11.70
2023-03-16T23:17:00.321Z,11.70
2023-03-16T23:19:03.253Z,11.70
2023-03-16T23:21:05.258Z,11.70
2023-03-16T23:23:07.687Z,11.60
2023-03-16T23:25:09.650Z,11.60
2023-03-16T23:27:18.003Z,11.60
2023-03-16T23:29:23.398Z,11.60
2023-03-16T23:31:27.182Z,11.60
2023-03-16T23:33:28.908Z,11.50
2023-03-16T23:35:31.748Z,11.50
2023-03-16T23:37:33.527Z,11.60
2023-03-16T23:39:35.309Z,11.50
2023-03-16T23:41:42.188Z,11.50
2023-03-16T23:43:45.847Z,11.50
2023-03-16T23:45:51.002Z,11.50
2023-03-16T23:47:54.762Z,11.50
2023-03-16T23:49:56.677Z,11.50
2023-03-16T23:52:00.583Z,11.50
2023-03-16T23:54:11.009Z,11.50
2023-03-16T23:56:12.708Z,11.50
2023-03-16T23:58:16.397Z,11.50
